ENVR/VRY METAR and TAF weather

Enter ICAO airport designator
Station Type Date Time Source
ENVR METAR 2022/05/24 12:50 UTC NOAA

ENVR 241250Z 02004KT CAVOK 10/06 Q1004


Station Type Date Time Source
ENVR Decoded METAR 2022/05/24 12:50 UTC NOAA

Station name not available
May 24, 2022 - 08:50 AM EDT / 2022.05.24 1250 UTC
Wind: from the NNE (020 degrees) at 5 MPH (4 KT):0
Visibility: greater than 7 mile(s):0
Temperature: 50 F (10 C)
Dew Point: 42 F (6 C)
Relative Humidity: 76%
Pressure (altimeter): 29.65 in. Hg (1004 hPa)
ob: ENVR 241250Z 02004KT CAVOK 10/06 Q1004
cycle: 13

Station Type Date Time Source
ENVR TAF UTC NOAA

Error!

Example: see airport list